Hlavní strana
METAR-TAF:

METAR-TAF

Letiště :

Rørvik, Norsko

zeměpisná šířka: 64-50N, zeměpisná délka: 011-09E, výška: 4 m

Aktuální stav počasí

Zpráva byla vytvořena před 43 minutami, v 17:20 UTC
Východní vítr 9 kt
Teplota 10°C
Vlhkost vzduchu 50%
Tlak 1008 hPa
Viditelnost 10 km a více
Žádná oblačnost pod 1500 m, nevyskytují se cumulonimby.

METAR: ENRM 061720Z 10009KT CAVOK 10/00 Q1008

Čas: 20:03 (18:03 UTC)

Předpověď počasí

Zpráva byla vytvořena před 4 hodinami a 3 minutami, v 14:00 UTC
Předpověď platná od 06 v 15 UTC do 06 v 18 UTC
Východojihovýchodní vítr 8 kt
Viditelnost 10 km a více
Žádná oblačnost pod 1500 m, nevyskytují se cumulonimby.

TAF: ENRM 061400Z 0615/0618 12008KT CAVOK

Stav a předpovědi počasí z více než 4 000 letišť (zprávy METAR a TAF).

Červené a žluté tečky na mapě představují dostupné meteorologické stanice.

Když kurzor umístíte na tečku, zobrazí se název stanice.

Pak kliknutím zobrazíte stav a předpověď počasí.

Chcete-li změnit mapu, kliknutím na zelené tlačítko se znaménkem +mapu přiblížíte, kliknutím na zelené tlačítko se znaménkem – mapu oddálíte a kliknutím na zelené šipky přejdete na sousední mapy.


METAR-TAF: